sensor_id;sensor_type;location;lat;lon;timestamp;pressure;altitude;pressure_sealevel;temperature;humidity
33731;BME280;22931;48.636;9.000;2023-05-01T03:32:16;95794.75;;;12.77;60.10
33731;BME280;22931;48.636;9.000;2023-05-01T03:37:24;95789.81;;;12.76;59.21
33731;BME280;22931;48.636;9.000;2023-05-01T03:42:32;95788.09;;;12.64;59.05
33731;BME280;22931;48.636;9.000;2023-05-01T03:47:42;95786.00;;;12.54;59.03
33731;BME280;22931;48.636;9.000;2023-05-01T03:52:50;95778.31;;;12.45;58.85
33731;BME280;22931;48.636;9.000;2023-05-01T03:57:57;95780.06;;;12.38;58.81
33731;BME280;22931;48.636;9.000;2023-05-01T04:03:08;95775.09;;;12.36;59.42
33731;BME280;22931;48.636;9.000;2023-05-01T04:08:16;95785.25;;;12.34;59.00
33731;BME280;22931;48.636;9.000;2023-05-01T04:13:23;95779.97;;;12.34;59.24
33731;BME280;22931;48.636;9.000;2023-05-01T04:18:34;95775.56;;;12.38;59.28
33731;BME280;22931;48.636;9.000;2023-05-01T04:23:41;95785.66;;;12.36;59.34
33731;BME280;22931;48.636;9.000;2023-05-01T04:28:49;95781.09;;;12.33;59.04
33731;BME280;22931;48.636;9.000;2023-05-01T04:33:59;95784.56;;;12.37;59.12
33731;BME280;22931;48.636;9.000;2023-05-01T04:39:07;95790.53;;;12.34;58.94
33731;BME280;22931;48.636;9.000;2023-05-01T04:44:15;95787.56;;;12.36;59.36
33731;BME280;22931;48.636;9.000;2023-05-01T04:49:25;95787.63;;;12.39;59.68
33731;BME280;22931;48.636;9.000;2023-05-01T04:54:33;95792.13;;;12.39;59.73
33731;BME280;22931;48.636;9.000;2023-05-01T04:59:41;95786.84;;;12.39;60.10
33731;BME280;22931;48.636;9.000;2023-05-01T05:04:51;95786.16;;;12.42;60.60
33731;BME280;22931;48.636;9.000;2023-05-01T05:10:00;95795.19;;;12.41;60.10
33731;BME280;22931;48.636;9.000;2023-05-01T05:15:08;95797.06;;;12.40;59.80
33731;BME280;22931;48.636;9.000;2023-05-01T05:20:18;95799.75;;;12.44;60.32
33731;BME280;22931;48.636;9.000;2023-05-01T05:25:26;95799.75;;;12.44;60.19
33731;BME280;22931;48.636;9.000;2023-05-01T05:30:34;95793.75;;;12.43;60.29
33731;BME280;22931;48.636;9.000;2023-05-01T05:35:44;95802.84;;;12.46;60.81
33731;BME280;22931;48.636;9.000;2023-05-01T05:40:52;95798.31;;;12.46;60.07
33731;BME280;22931;48.636;9.000;2023-05-01T05:46:01;95802.50;;;12.47;60.32
33731;BME280;22931;48.636;9.000;2023-05-01T05:51:12;95798.38;;;12.50;61.03
33731;BME280;22931;48.636;9.000;2023-05-01T05:56:20;95799.16;;;12.50;61.00
33731;BME280;22931;48.636;9.000;2023-05-01T06:01:28;95795.38;;;12.51;61.14
33731;BME280;22931;48.636;9.000;2023-05-01T06:06:38;95800.06;;;12.58;61.38
33731;BME280;22931;48.636;9.000;2023-05-01T06:11:46;95795.59;;;12.62;61.21
33731;BME280;22931;48.636;9.000;2023-05-01T06:16:54;95796.09;;;12.68;61.26
33731;BME280;22931;48.636;9.000;2023-05-01T06:22:05;95792.44;;;12.76;61.81
33731;BME280;22931;48.636;9.000;2023-05-01T06:27:14;95796.34;;;12.82;61.29
33731;BME280;22931;48.636;9.000;2023-05-01T06:32:22;95795.28;;;12.86;61.19
33731;BME280;22931;48.636;9.000;2023-05-01T06:37:32;95794.66;;;12.93;62.17
33731;BME280;22931;48.636;9.000;2023-05-01T06:42:42;95801.47;;;12.94;61.60
33731;BME280;22931;48.636;9.000;2023-05-01T06:47:49;95808.34;;;12.98;61.44
33731;BME280;22931;48.636;9.000;2023-05-01T06:53:00;95804.66;;;13.03;61.79
33731;BME280;22931;48.636;9.000;2023-05-01T06:58:08;95814.53;;;13.06;61.55
33731;BME280;22931;48.636;9.000;2023-05-01T07:03:27;95814.66;;;13.13;61.37
33731;BME280;22931;48.636;9.000;2023-05-01T07:08:37;95812.50;;;13.18;62.22
33731;BME280;22931;48.636;9.000;2023-05-01T07:13:45;95814.84;;;13.23;61.43
33731;BME280;22931;48.636;9.000;2023-05-01T07:18:53;95817.94;;;13.29;61.54
33731;BME280;22931;48.636;9.000;2023-05-01T07:24:04;95809.03;;;13.37;61.75
33731;BME280;22931;48.636;9.000;2023-05-01T07:29:11;95812.38;;;13.57;62.74
33731;BME280;22931;48.636;9.000;2023-05-01T07:34:20;95809.94;;;13.48;61.38
33731;BME280;22931;48.636;9.000;2023-05-01T07:39:30;95809.34;;;13.58;61.82
33731;BME280;22931;48.636;9.000;2023-05-01T07:44:38;95799.63;;;13.62;61.62
33731;BME280;22931;48.636;9.000;2023-05-01T07:49:46;95799.31;;;13.67;61.63
33731;BME280;22931;48.636;9.000;2023-05-01T07:54:56;95797.88;;;13.73;61.51
33731;BME280;22931;48.636;9.000;2023-05-01T08:00:05;95806.63;;;13.77;61.37
33731;BME280;22931;48.636;9.000;2023-05-01T08:05:15;95805.22;;;13.83;61.26
33731;BME280;22931;48.636;9.000;2023-05-01T08:10:25;95805.72;;;13.93;61.14
33731;BME280;22931;48.636;9.000;2023-05-01T08:15:33;95810.38;;;14.03;61.52
33731;BME280;22931;48.636;9.000;2023-05-01T08:20:44;95805.59;;;14.12;61.53
33731;BME280;22931;48.636;9.000;2023-05-01T08:25:55;95797.09;;;14.25;61.49
33731;BME280;22931;48.636;9.000;2023-05-01T08:31:03;95798.78;;;14.37;61.26
33731;BME280;22931;48.636;9.000;2023-05-01T08:36:11;95793.28;;;14.52;61.53
33731;BME280;22931;48.636;9.000;2023-05-01T08:41:22;95800.00;;;14.76;61.07
33731;BME280;22931;48.636;9.000;2023-05-01T08:46:37;95798.31;;;14.98;60.70
33731;BME280;22931;48.636;9.000;2023-05-01T08:51:50;95796.16;;;15.10;60.43
33731;BME280;22931;48.636;9.000;2023-05-01T08:57:05;95795.56;;;15.28;60.41
33731;BME280;22931;48.636;9.000;2023-05-01T09:02:17;95797.56;;;15.41;60.17
33731;BME280;22931;48.636;9.000;2023-05-01T09:07:25;95796.59;;;15.56;60.33
33731;BME280;22931;48.636;9.000;2023-05-01T09:12:36;95797.84;;;15.73;59.74
33731;BME280;22931;48.636;9.000;2023-05-01T09:17:45;95802.06;;;15.81;59.47
33731;BME280;22931;48.636;9.000;2023-05-01T09:22:54;95803.66;;;15.89;59.40
33731;BME280;22931;48.636;9.000;2023-05-01T09:28:06;95802.97;;;16.03;58.49
33731;BME280;22931;48.636;9.000;2023-05-01T09:33:14;95790.09;;;16.05;58.42
33731;BME280;22931;48.636;9.000;2023-05-01T09:38:25;95805.34;;;16.18;58.13
33731;BME280;22931;48.636;9.000;2023-05-01T09:43:35;95805.38;;;16.29;58.33
33731;BME280;22931;48.636;9.000;2023-05-01T09:48:53;95799.78;;;16.44;57.90
33731;BME280;22931;48.636;9.000;2023-05-01T09:54:03;95793.72;;;16.47;57.43
33731;BME280;22931;48.636;9.000;2023-05-01T09:59:18;95800.25;;;16.57;56.98
33731;BME280;22931;48.636;9.000;2023-05-01T10:04:29;95799.88;;;16.66;56.62
33731;BME280;22931;48.636;9.000;2023-05-01T10:09:38;95795.38;;;16.77;57.05
33731;BME280;22931;48.636;9.000;2023-05-01T10:14:53;95798.81;;;16.88;56.45
33731;BME280;22931;48.636;9.000;2023-05-01T10:20:02;95798.06;;;16.91;56.60
33731;BME280;22931;48.636;9.000;2023-05-01T10:25:11;95797.69;;;16.99;56.05
33731;BME280;22931;48.636;9.000;2023-05-01T10:30:21;95796.19;;;17.05;56.06
33731;BME280;22931;48.636;9.000;2023-05-01T10:35:33;95801.50;;;17.09;56.10
33731;BME280;22931;48.636;9.000;2023-05-01T10:40:43;95806.47;;;17.10;56.45
33731;BME280;22931;48.636;9.000;2023-05-01T10:45:54;95801.91;;;17.18;56.71
33731;BME280;22931;48.636;9.000;2023-05-01T10:51:26;95811.41;;;17.26;56.69
33731;BME280;22931;48.636;9.000;2023-05-01T10:56:40;95803.06;;;17.35;56.83
33731;BME280;22931;48.636;9.000;2023-05-01T11:01:52;95804.22;;;17.37;57.18
33731;BME280;22931;48.636;9.000;2023-05-01T11:07:16;95792.81;;;17.44;57.07
33731;BME280;22931;48.636;9.000;2023-05-01T11:12:49;95789.00;;;17.48;56.78
33731;BME280;22931;48.636;9.000;2023-05-01T11:18:01;95792.81;;;17.44;57.34
33731;BME280;22931;48.636;9.000;2023-05-01T11:23:16;95785.22;;;17.42;57.51
33731;BME280;22931;48.636;9.000;2023-05-01T11:28:24;95784.44;;;17.35;57.40
33731;BME280;22931;48.636;9.000;2023-05-01T11:33:34;95787.84;;;17.35;58.09
33731;BME280;22931;48.636;9.000;2023-05-01T11:38:48;95786.34;;;17.34;58.27
33731;BME280;22931;48.636;9.000;2023-05-01T11:43:58;95780.66;;;17.32;58.34
33731;BME280;22931;48.636;9.000;2023-05-01T11:49:08;95781.03;;;17.41;58.92
33731;BME280;22931;48.636;9.000;2023-05-01T11:54:16;95771.56;;;17.54;58.17
33731;BME280;22931;48.636;9.000;2023-05-01T11:59:24;95777.25;;;17.70;58.27
33731;BME280;22931;48.636;9.000;2023-05-01T12:04:35;95769.22;;;17.85;58.07
33731;BME280;22931;48.636;9.000;2023-05-01T12:09:43;95764.25;;;17.94;57.95
33731;BME280;22931;48.636;9.000;2023-05-01T12:14:51;95767.31;;;18.03;57.54
33731;BME280;22931;48.636;9.000;2023-05-01T12:20:02;95760.78;;;18.11;56.86
33731;BME280;22931;48.636;9.000;2023-05-01T12:25:10;95757.75;;;18.16;56.99
33731;BME280;22931;48.636;9.000;2023-05-01T12:30:23;95756.22;;;18.22;55.64
33731;BME280;22931;48.636;9.000;2023-05-01T12:35:36;95751.66;;;18.19;55.73
33731;BME280;22931;48.636;9.000;2023-05-01T12:40:52;95760.00;;;18.21;55.77
33731;BME280;22931;48.636;9.000;2023-05-01T12:46:01;95762.69;;;18.17;55.67
33731;BME280;22931;48.636;9.000;2023-05-01T12:51:17;95769.91;;;18.17;55.77
33731;BME280;22931;48.636;9.000;2023-05-01T12:56:24;95754.72;;;18.07;56.17
33731;BME280;22931;48.636;9.000;2023-05-01T13:01:32;95764.66;;;17.92;56.44
33731;BME280;22931;48.636;9.000;2023-05-01T13:06:43;95781.44;;;17.78;57.08
33731;BME280;22931;48.636;9.000;2023-05-01T13:11:56;95779.91;;;17.60;56.98
33731;BME280;22931;48.636;9.000;2023-05-01T13:17:06;95776.47;;;17.38;57.31
33731;BME280;22931;48.636;9.000;2023-05-01T13:22:16;95768.09;;;17.22;57.78
33731;BME280;22931;48.636;9.000;2023-05-01T13:27:25;95764.66;;;17.04;57.52
33731;BME280;22931;48.636;9.000;2023-05-01T13:32:38;95771.47;;;16.94;57.80
33731;BME280;22931;48.636;9.000;2023-05-01T13:37:50;95765.38;;;16.83;57.97
33731;BME280;22931;48.636;9.000;2023-05-01T13:42:58;95773.72;;;16.78;58.07
33731;BME280;22931;48.636;9.000;2023-05-01T13:48:05;95770.69;;;16.76;58.83
33731;BME280;22931;48.636;9.000;2023-05-01T13:53:18;95771.06;;;16.78;59.03
33731;BME280;22931;48.636;9.000;2023-05-01T13:58:27;95773.72;;;16.78;58.86
33731;BME280;22931;48.636;9.000;2023-05-01T14:03:38;95774.47;;;16.82;58.77
33731;BME280;22931;48.636;9.000;2023-05-01T14:08:50;95770.69;;;16.87;58.83
33731;BME280;22931;48.636;9.000;2023-05-01T14:13:58;95757.03;;;16.92;58.96
33731;BME280;22931;48.636;9.000;2023-05-01T14:19:07;95758.56;;;16.96;58.59
33731;BME280;22931;48.636;9.000;2023-05-01T14:24:17;95768.84;;;16.98;58.32
33731;BME280;22931;48.636;9.000;2023-05-01T14:29:25;95770.69;;;16.94;58.36
33731;BME280;22931;48.636;9.000;2023-05-01T14:34:36;95788.94;;;16.88;58.38
33731;BME280;22931;48.636;9.000;2023-05-01T14:39:49;95831.44;;;16.85;58.78
33731;BME280;22931;48.636;9.000;2023-05-01T14:44:57;95840.13;;;16.75;58.37
33731;BME280;22931;48.636;9.000;2023-05-01T14:50:05;95833.16;;;16.45;57.63
33731;BME280;22931;48.636;9.000;2023-05-01T14:55:25;95832.25;;;16.13;57.47
33731;BME280;22931;48.636;9.000;2023-05-01T15:00:34;95797.78;;;15.66;57.16
33731;BME280;22931;48.636;9.000;2023-05-01T15:05:42;95818.34;;;15.36;57.70
33731;BME280;22931;48.636;9.000;2023-05-01T15:10:53;95809.44;;;15.14;58.91
33731;BME280;22931;48.636;9.000;2023-05-01T15:16:01;95820.28;;;14.98;58.92
33731;BME280;22931;48.636;9.000;2023-05-01T15:21:10;95814.50;;;14.89;59.13
33731;BME280;22931;48.636;9.000;2023-05-01T15:26:20;95812.97;;;14.88;60.35
33731;BME280;22931;48.636;9.000;2023-05-01T15:31:28;95806.56;;;14.89;60.58
33731;BME280;22931;48.636;9.000;2023-05-01T15:36:36;95811.50;;;14.94;61.52
33731;BME280;22931;48.636;9.000;2023-05-01T15:41:46;95805.97;;;15.06;62.89
33731;BME280;22931;48.636;9.000;2023-05-01T15:46:54;95806.06;;;15.13;62.03
33731;BME280;22931;48.636;9.000;2023-05-01T15:52:02;95802.69;;;15.20;61.99
33731;BME280;22931;48.636;9.000;2023-05-01T15:57:13;95792.53;;;15.26;63.15
33731;BME280;22931;48.636;9.000;2023-05-01T16:02:21;95803.19;;;15.33;62.30
33731;BME280;22931;48.636;9.000;2023-05-01T16:07:43;95809.34;;;15.44;63.23
33731;BME280;22931;48.636;9.000;2023-05-01T16:12:54;95819.69;;;15.56;62.83
33731;BME280;22931;48.636;9.000;2023-05-01T16:18:02;95819.78;;;15.66;62.01
33731;BME280;22931;48.636;9.000;2023-05-01T16:23:10;95828.56;;;15.74;61.41
33731;BME280;22931;48.636;9.000;2023-05-01T16:28:23;95837.28;;;15.78;62.02
33731;BME280;22931;48.636;9.000;2023-05-01T16:33:32;95849.78;;;15.74;61.37
33731;BME280;22931;48.636;9.000;2023-05-01T16:38:40;95849.72;;;15.67;61.17
33731;BME280;22931;48.636;9.000;2023-05-01T16:43:50;95833.75;;;15.60;61.35
33731;BME280;22931;48.636;9.000;2023-05-01T16:48:58;95842.06;;;15.55;61.10
33731;BME280;22931;48.636;9.000;2023-05-01T16:54:06;95849.97;;;15.51;60.96
33731;BME280;22931;48.636;9.000;2023-05-01T16:59:16;95854.16;;;15.52;61.91
33731;BME280;22931;48.636;9.000;2023-05-01T17:04:24;95841.25;;;15.51;62.06
33731;BME280;22931;48.636;9.000;2023-05-01T17:09:32;95842.00;;;15.51;61.58
33731;BME280;22931;48.636;9.000;2023-05-01T17:14:42;95850.41;;;15.57;62.44
33731;BME280;22931;48.636;9.000;2023-05-01T17:19:50;95840.19;;;15.59;62.29
33731;BME280;22931;48.636;9.000;2023-05-01T17:24:58;95849.69;;;15.60;61.99
33731;BME280;22931;48.636;9.000;2023-05-01T17:30:10;95847.44;;;15.65;62.41
33731;BME280;22931;48.636;9.000;2023-05-01T17:35:20;95857.66;;;15.63;62.27
33731;BME280;22931;48.636;9.000;2023-05-01T17:40:28;95868.97;;;15.60;62.51
33731;BME280;22931;48.636;9.000;2023-05-01T17:45:38;95876.19;;;15.60;62.40
33731;BME280;22931;48.636;9.000;2023-05-01T17:50:48;95865.53;;;15.56;62.27
33731;BME280;22931;48.636;9.000;2023-05-01T17:55:56;95885.59;;;15.54;62.46
33731;BME280;22931;48.636;9.000;2023-05-01T18:01:06;95885.22;;;15.52;63.02
33731;BME280;22931;48.636;9.000;2023-05-01T18:06:15;95899.56;;;15.47;62.48
33731;BME280;22931;48.636;9.000;2023-05-01T18:11:22;95905.94;;;15.43;62.16
33731;BME280;22931;48.636;9.000;2023-05-01T18:16:33;95918.78;;;15.41;62.87
33731;BME280;22931;48.636;9.000;2023-05-01T18:21:41;95919.88;;;15.36;62.80
33731;BME280;22931;48.636;9.000;2023-05-01T18:26:49;95938.00;;;15.31;62.60
33731;BME280;22931;48.636;9.000;2023-05-01T18:31:59;95947.78;;;15.27;62.92
33731;BME280;22931;48.636;9.000;2023-05-01T18:37:07;95941.84;;;15.37;63.27
33731;BME280;22931;48.636;9.000;2023-05-01T18:42:15;95940.84;;;15.15;62.46
33731;BME280;22931;48.636;9.000;2023-05-01T18:47:26;95943.06;;;15.09;63.02
33731;BME280;22931;48.636;9.000;2023-05-01T18:52:36;95949.41;;;15.01;63.12
33731;BME280;22931;48.636;9.000;2023-05-01T18:57:45;95945.94;;;14.97;63.41
33731;BME280;22931;48.636;9.000;2023-05-01T19:02:57;95948.59;;;14.97;62.92
33731;BME280;22931;48.636;9.000;2023-05-01T19:08:05;95953.47;;;14.95;62.25
33731;BME280;22931;48.636;9.000;2023-05-01T19:13:13;95955.75;;;14.93;62.41
33731;BME280;22931;48.636;9.000;2023-05-01T19:18:23;95954.19;;;14.92;62.07
33731;BME280;22931;48.636;9.000;2023-05-01T19:23:31;95959.06;;;14.87;62.26
33731;BME280;22931;48.636;9.000;2023-05-01T19:28:41;95958.94;;;14.80;62.70
33731;BME280;22931;48.636;9.000;2023-05-01T19:33:51;95961.66;;;14.83;61.94
33731;BME280;22931;48.636;9.000;2023-05-01T19:39:01;95960.09;;;14.79;61.92
33731;BME280;22931;48.636;9.000;2023-05-01T19:44:09;95972.16;;;14.76;62.16
33731;BME280;22931;48.636;9.000;2023-05-01T19:49:19;95984.28;;;14.77;62.16
33731;BME280;22931;48.636;9.000;2023-05-01T19:54:28;95978.88;;;14.70;62.32
33731;BME280;22931;48.636;9.000;2023-05-01T19:59:37;95983.38;;;14.66;62.47
33731;BME280;22931;48.636;9.000;2023-05-01T20:04:48;95993.56;;;14.64;62.33
33731;BME280;22931;48.636;9.000;2023-05-01T20:09:56;95997.63;;;14.58;62.23
33731;BME280;22931;48.636;9.000;2023-05-01T20:15:06;96009.66;;;14.52;62.26
33731;BME280;22931;48.636;9.000;2023-05-01T20:20:16;96019.09;;;14.53;62.34
33731;BME280;22931;48.636;9.000;2023-05-01T20:25:24;96017.91;;;14.47;62.21
33731;BME280;22931;48.636;9.000;2023-05-01T20:30:32;96023.84;;;14.40;62.37
33731;BME280;22931;48.636;9.000;2023-05-01T20:35:44;96035.56;;;14.39;62.56
33731;BME280;22931;48.636;9.000;2023-05-01T20:40:52;96043.00;;;14.34;62.57
33731;BME280;22931;48.636;9.000;2023-05-01T20:45:59;96054.34;;;14.31;62.27
33731;BME280;22931;48.636;9.000;2023-05-01T20:51:09;96053.88;;;14.29;62.66
33731;BME280;22931;48.636;9.000;2023-05-01T20:56:19;96053.41;;;14.23;62.62
33731;BME280;22931;48.636;9.000;2023-05-01T21:01:28;96053.34;;;14.20;62.76
33731;BME280;22931;48.636;9.000;2023-05-01T21:06:39;96055.94;;;14.16;62.63
33731;BME280;22931;48.636;9.000;2023-05-01T21:11:46;96055.06;;;14.09;62.44
33731;BME280;22931;48.636;9.000;2023-05-01T21:16:54;96061.31;;;14.01;62.54
33731;BME280;22931;48.636;9.000;2023-05-01T21:22:05;96064.25;;;13.96;62.69
33731;BME280;22931;48.636;9.000;2023-05-01T21:27:14;96065.97;;;13.84;62.28
33731;BME280;22931;48.636;9.000;2023-05-01T21:32:27;96066.66;;;13.81;62.62
33731;BME280;22931;48.636;9.000;2023-05-01T21:37:39;96072.59;;;13.75;62.44
33731;BME280;22931;48.636;9.000;2023-05-01T21:42:52;96065.63;;;13.67;62.57
33731;BME280;22931;48.636;9.000;2023-05-01T21:48:00;96070.00;;;13.59;62.48
33731;BME280;22931;48.636;9.000;2023-05-01T21:53:11;96075.16;;;13.52;62.23
33731;BME280;22931;48.636;9.000;2023-05-01T21:58:18;96078.75;;;13.44;62.23
33731;BME280;22931;48.636;9.000;2023-05-01T22:03:26;96080.47;;;13.37;62.34
33731;BME280;22931;48.636;9.000;2023-05-01T22:08:37;96078.09;;;13.32;62.53
33731;BME280;22931;48.636;9.000;2023-05-01T22:13:45;96075.31;;;13.24;62.37
33731;BME280;22931;48.636;9.000;2023-05-01T22:18:53;96082.69;;;13.15;62.21
33731;BME280;22931;48.636;9.000;2023-05-01T22:24:04;96085.50;;;13.07;62.17
33731;BME280;22931;48.636;9.000;2023-05-01T22:29:12;96081.06;;;13.11;62.38
33731;BME280;22931;48.636;9.000;2023-05-01T22:34:19;96080.41;;;12.83;61.94
33731;BME280;22931;48.636;9.000;2023-05-01T22:39:30;96090.81;;;12.76;62.63
33731;BME280;22931;48.636;9.000;2023-05-01T22:44:39;96092.44;;;12.65;62.31
33731;BME280;22931;48.636;9.000;2023-05-01T22:49:47;96097.56;;;12.57;62.44
33731;BME280;22931;48.636;9.000;2023-05-01T22:54:57;96100.88;;;12.54;62.28
33731;BME280;22931;48.636;9.000;2023-05-01T23:00:06;96104.13;;;12.48;62.12
33731;BME280;22931;48.636;9.000;2023-05-01T23:05:15;96095.94;;;12.37;61.88
33731;BME280;22931;48.636;9.000;2023-05-01T23:10:26;96108.28;;;12.33;62.19
33731;BME280;22931;48.636;9.000;2023-05-01T23:15:42;96111.47;;;12.27;61.98
33731;BME280;22931;48.636;9.000;2023-05-01T23:20:51;96102.91;;;12.14;61.94
33731;BME280;22931;48.636;9.000;2023-05-01T23:26:02;96111.38;;;12.08;61.92
33731;BME280;22931;48.636;9.000;2023-05-01T23:31:16;96121.84;;;12.04;62.10
33731;BME280;22931;48.636;9.000;2023-05-01T23:36:24;96116.38;;;11.97;62.02
33731;BME280;22931;48.636;9.000;2023-05-01T23:41:35;96112.97;;;11.97;62.49
33731;BME280;22931;48.636;9.000;2023-05-01T23:46:42;96110.47;;;11.88;62.24
33731;BME280;22931;48.636;9.000;2023-05-01T23:51:50;96119.06;;;11.85;62.27
33731;BME280;22931;48.636;9.000;2023-05-01T23:57:01;96110.72;;;11.83;62.59
